Meade, Kansas
Current Conditions -  °F | °C
As of 3:15 PM on Monday 24 Nov 2014 (Local Time) from KLBL Reporting Station
Few Clouds Few Clouds  
Wind Chill: 52°   Ceiling: Unl
Heat Index: 52°   Visibility: 10mi
Dew Point: 12°   Wind: 17mph
Humidity: 21%   Direction: 340°NNW
Pressure: 30"   Gusts: NA
Location:  37.29°N, 100.34°W
Report Text: KLBL 242115Z AUTO 34015KT 10SM FEW110 11/M11 A3000 RMK AO1
Loading
Personal Weather Stations






























Interactive Weather Map New forecast layout! Learn more

10-Day Weather Forecast

Advertisements
Track Severe Weather on mobile